Time;durP1;ratioP1;P1;durP2;ratioP2;P2;SDS_P1;SDS_P2;PMS_P1;PMS_P2;Temp;Humidity;BMP_temperature;BMP_pressure;BME280_temperature;BME280_humidity;BME280_pressure;Samples;Min_cycle;Max_cycle;Signal;HPM_P1;HPM_P2
2022/12/28 00:01:24;;;;;;;5.05;2.03;;;;;;;10.02;59.96;101609.81;4936099;28;124794;-69
2022/12/28 00:03:53;;;;;;;4.35;2.10;;;;;;;10.02;59.71;101601.88;4942633;28;124316;-69
2022/12/28 00:06:22;;;;;;;6.53;2.40;;;;;;;10.03;59.85;101586.84;4931822;28;114009;-69
2022/12/28 00:08:54;;;;;;;7.93;2.63;;;;;;;10.03;59.96;101573.63;4942324;28;113851;-69
2022/12/28 00:11:23;;;;;;;4.07;2.08;;;;;;;10.04;60.00;101565.66;4943705;28;124217;-69
2022/12/28 00:13:58;;;;;;;;;;;;;;;10.04;59.98;101570.06;4949179;28;123914;-69
2022/12/28 00:16:27;;;;;;;7.57;2.63;;;;;;;10.05;59.77;101566.50;4947642;28;114858;-69
2022/12/28 00:18:59;;;;;;;6.32;2.33;;;;;;;10.03;59.98;101555.97;4949299;28;114976;-69
2022/12/28 00:21:27;;;;;;;7.65;2.72;;;;;;;10.03;59.97;101552.47;4946110;28;124800;-69
2022/12/28 00:23:58;;;;;;;7.40;2.50;;;;;;;10.03;60.09;101552.47;4947888;28;123110;-69
2022/12/28 00:26:27;;;;;;;3.47;1.95;;;;;;;10.03;60.12;101545.38;4946161;28;114070;-69
2022/12/28 00:28:54;;;;;;;5.20;2.20;;;;;;;10.04;60.29;101548.88;4957082;28;113743;-69
2022/12/28 00:31:30;;;;;;;7.63;2.40;;;;;;;10.06;60.28;101541.78;4941620;28;123483;-68
2022/12/28 00:33:57;;;;;;;5.30;2.50;;;;;;;10.07;60.38;101538.22;4931925;28;123891;-69
2022/12/28 00:36:24;;;;;;;5.45;2.50;;;;;;;10.06;60.21;101524.13;4949032;28;114595;-69
2022/12/28 00:39:11;;;;;;;7.15;2.60;;;;;;;10.06;60.43;101510.03;4945732;28;113907;-69
2022/12/28 00:41:39;;;;;;;5.65;2.47;;;;;;;10.06;60.46;101504.72;4941233;28;124682;-68
2022/12/28 00:44:07;;;;;;;7.22;2.33;;;;;;;10.07;60.47;101493.22;4946537;28;123245;-69
2022/12/28 00:46:34;;;;;;;4.85;2.33;;;;;;;10.08;60.37;101494.97;4947833;28;115330;-69
2022/12/28 00:49:02;;;;;;;5.45;2.35;;;;;;;10.08;60.32;101492.31;4947563;28;114593;-69
2022/12/28 00:51:29;;;;;;;6.63;2.50;;;;;;;10.09;60.38;101488.72;4943235;28;124401;-69
2022/12/28 00:53:56;;;;;;;4.97;2.40;;;;;;;10.09;60.53;101488.72;4957539;28;123275;-68
2022/12/28 00:56:23;;;;;;;4.55;2.38;;;;;;;10.09;60.38;101483.44;4946938;28;114929;-69
2022/12/28 00:58:56;;;;;;;5.13;2.35;;;;;;;10.08;60.83;101489.66;4946491;28;113792;-69
2022/12/28 01:01:24;;;;;;;5.75;2.70;;;;;;;10.09;60.28;101480.78;4947746;28;124528;-69
2022/12/28 01:03:54;;;;;;;7.07;2.83;;;;;;;10.09;60.41;101481.66;4930751;28;122724;-69
2022/12/28 01:06:24;;;;;;;5.75;2.78;;;;;;;10.10;60.67;101485.19;4931499;28;113976;-69
2022/12/28 01:08:51;;;;;;;6.25;2.80;;;;;;;10.13;60.68;101477.13;4957371;28;114721;-69
2022/12/28 01:11:22;;;;;;;4.70;2.42;;;;;;;10.14;60.62;101476.22;4933176;28;123220;-68
2022/12/28 01:13:50;;;;;;;6.72;2.58;;;;;;;10.17;60.58;101476.13;4934114;28;123833;-69
2022/12/28 01:16:24;;;;;;;7.68;2.50;;;;;;;10.18;60.47;101464.63;4935576;28;113429;-69
2022/12/28 01:18:53;;;;;;;4.28;2.40;;;;;;;10.21;60.45;101456.56;4934951;28;113259;-68
2022/12/28 01:21:22;;;;;;;4.80;2.50;;;;;;;10.21;60.53;101456.56;4960119;28;122906;-69
2022/12/28 01:23:53;;;;;;;6.28;2.45;;;;;;;10.23;60.50;101460.03;4941584;28;122699;-69
2022/12/28 01:26:20;;;;;;;4.80;2.70;;;;;;;10.26;60.52;101457.25;4945058;28;114203;-68
2022/12/28 01:28:48;;;;;;;6.10;2.70;;;;;;;10.28;60.46;101458.09;4942913;28;112697;-69
2022/12/28 01:31:17;;;;;;;6.53;2.65;;;;;;;10.30;60.55;101448.38;4947336;28;126006;-68
2022/12/28 01:33:45;;;;;;;5.93;2.70;;;;;;;10.33;60.45;101444.72;4946215;28;124003;-69
2022/12/28 01:36:17;;;;;;;6.25;2.47;;;;;;;10.35;60.57;101434.09;4930075;28;113506;-69
2022/12/28 01:38:45;;;;;;;6.28;2.60;;;;;;;10.38;60.45;101441.91;4933235;28;113286;-67
2022/12/28 01:41:15;;;;;;;7.80;2.50;;;;;;;10.40;60.61;101424.22;4946855;28;124616;-67
2022/12/28 01:43:47;;;;;;;6.57;2.60;;;;;;;10.42;60.54;101427.66;4942210;28;124079;-67
2022/12/28 01:46:17;;;;;;;4.82;2.53;;;;;;;10.46;60.64;101434.59;4931294;28;113254;-67
2022/12/28 01:48:51;;;;;;;3.67;2.35;;;;;;;10.46;60.40;101421.34;4944679;28;114868;-69
2022/12/28 01:51:20;;;;;;;4.93;2.38;;;;;;;10.48;60.48;101422.16;4942374;28;124023;-69
2022/12/28 01:53:50;;;;;;;5.07;2.53;;;;;;;10.49;60.50;101410.63;4936092;28;122944;-69
2022/12/28 01:56:17;;;;;;;5.72;2.58;;;;;;;10.52;60.52;101403.44;4929537;28;115715;-69
2022/12/28 01:58:45;;;;;;;6.88;2.45;;;;;;;10.54;60.29;101374.25;4943884;28;114164;-69
2022/12/28 02:01:12;;;;;;;5.03;2.30;;;;;;;10.56;60.41;101385.66;4944861;28;124694;-69
2022/12/28 02:03:40;;;;;;;4.82;2.33;;;;;;;10.58;60.15;101386.47;4944609;28;123899;-69
2022/12/28 02:06:10;;;;;;;4.97;2.00;;;;;;;10.61;60.46;101375.75;4964413;28;113729;-69
2022/12/28 02:09:05;;;;;;;4.90;2.40;;;;;;;10.62;60.18;101372.19;4941210;28;114588;-69
2022/12/28 02:11:33;;;;;;;5.40;2.30;;;;;;;10.65;60.10;101376.50;4948674;28;124089;-69
2022/12/28 02:14:01;;;;;;;9.02;2.78;;;;;;;10.67;60.23;101370.22;4931993;28;122820;-69
2022/12/28 02:16:29;;;;;;;6.43;2.67;;;;;;;10.69;60.20;101356.94;4948004;28;115118;-69
2022/12/28 02:18:56;;;;;;;4.43;2.60;;;;;;;10.70;60.25;101354.22;4951347;28;115039;-69
2022/12/28 02:21:41;;;;;;;7.15;2.63;;;;;;;10.73;60.10;101339.13;4932545;28;122910;-69
2022/12/28 02:24:46;;;;;;;6.40;2.47;;;;;;;10.74;60.09;101338.19;4940922;28;122897;-69
2022/12/28 02:27:55;;;;;;;6.45;2.60;;;;;;;10.76;60.15;101326.66;4962031;28;113107;-68
2022/12/28 02:30:23;;;;;;;3.60;2.30;;;;;;;10.78;60.18;101308.91;4946122;28;113667;-69
2022/12/28 02:32:58;;;;;;;4.15;2.22;;;;;;;10.80;60.17;101300.91;4949116;28;123696;-68
2022/12/28 02:35:30;;;;;;;5.80;2.60;;;;;;;10.82;60.15;101293.75;4945442;28;122994;-69
2022/12/28 02:38:19;;;;;;;5.75;2.20;;;;;;;10.85;60.06;101288.31;4943485;28;114938;-68
2022/12/28 02:40:52;;;;;;;4.57;2.30;;;;;;;10.88;60.22;101304.09;4948795;28;114247;-69
2022/12/28 02:43:22;;;;;;;5.93;2.40;;;;;;;10.90;60.30;101294.31;4956928;28;123396;-69
2022/12/28 02:51:46;;;;;;;5.00;2.28;;;;;;;10.95;60.17;101263.19;4947462;28;115274;-68
2022/12/28 02:57:32;;;;;;;5.25;2.33;;;;;;;10.99;60.37;101263.94;4953872;28;122252;-68
2022/12/28 03:00:10;;;;;;;4.60;2.30;;;;;;;11.02;60.12;101264.69;4954773;28;114740;-69
2022/12/28 03:02:45;;;;;;;4.72;2.33;;;;;;;11.04;60.46;101262.81;4934458;28;113734;-68
2022/12/28 03:08:39;;;;;;;3.35;2.20;;;;;;;11.08;60.24;101261.78;4939006;28;123419;-69
2022/12/28 03:11:10;;;;;;;6.90;2.50;;;;;;;11.09;60.44;101255.56;4938048;28;113266;-69
2022/12/28 03:13:55;;;;;;;5.40;2.50;;;;;;;11.09;60.20;101259.97;4947590;28;112726;-69
2022/12/28 03:16:32;;;;;;;5.60;2.40;;;;;;;11.07;60.41;101252.09;4933684;28;123403;-68
2022/12/28 03:33:09;;;;;;;4.07;2.88;;;;;;;10.98;60.95;101231.28;4949436;28;113193;-69
2022/12/28 03:36:00;;;;;;;3.90;2.58;;;;;;;10.96;61.25;101225.16;4948540;28;113187;-69
2022/12/28 03:38:42;;;;;;;6.25;2.85;;;;;;;10.98;61.27;101225.09;4932533;28;123432;-69
2022/12/28 03:41:18;;;;;;;6.05;2.83;;;;;;;10.96;61.38;101227.81;4937947;28;124319;-69
2022/12/28 03:43:53;;;;;;;5.35;2.45;;;;;;;10.97;61.33;101220.72;4950659;28;114962;-69
2022/12/28 03:46:35;;;;;;;4.22;2.33;;;;;;;10.97;61.54;101218.94;4943673;28;115089;-69
2022/12/28 03:49:03;;;;;;;3.53;2.53;;;;;;;10.98;61.52;101210.06;4943923;28;123154;-69
2022/12/28 03:51:31;;;;;;;5.75;2.72;;;;;;;10.98;61.68;101206.53;4946206;28;123321;-69
2022/12/28 03:54:06;;;;;;;6.07;2.60;;;;;;;10.98;61.56;101220.69;4945324;28;113439;-69
2022/12/28 03:56:33;;;;;;;4.13;2.67;;;;;;;10.98;61.98;101215.38;4931765;28;113150;-69
2022/12/28 03:59:03;;;;;;;3.92;2.40;;;;;;;10.97;61.71;101213.63;4942773;28;122900;-69
2022/12/28 04:01:39;;;;;;;4.40;2.70;;;;;;;10.98;62.03;101210.06;4937200;28;123272;-69
2022/12/28 04:04:06;;;;;;;6.43;2.58;;;;;;;10.98;61.89;101207.44;4944030;28;114561;-69
2022/12/28 04:06:33;;;;;;;4.68;2.80;;;;;;;10.98;61.80;101209.19;4943274;28;114378;-68
2022/12/28 04:09:02;;;;;;;6.45;3.03;;;;;;;10.99;62.28;101205.63;4931924;28;123484;-69
2022/12/28 04:11:33;;;;;;;5.03;2.70;;;;;;;11.00;62.12;101202.03;4944876;28;123559;-69
2022/12/28 04:14:03;;;;;;;5.18;2.60;;;;;;;11.02;62.32;101190.47;4932727;28;114043;-69
2022/12/28 04:16:38;;;;;;;5.97;2.60;;;;;;;11.04;62.34;101185.97;4927247;28;113033;-69
2022/12/28 04:19:12;;;;;;;4.40;2.78;;;;;;;11.05;62.18;101185.03;4948008;28;123042;-69
2022/12/28 04:21:39;;;;;;;5.60;2.70;;;;;;;11.07;62.40;101177.84;4943385;28;122678;-69
2022/12/28 04:24:06;;;;;;;5.00;2.40;;;;;;;11.09;62.38;101186.63;4933084;28;113986;-69
2022/12/28 04:26:33;;;;;;;3.97;2.55;;;;;;;11.09;62.38;101181.34;4932890;28;114123;-69
2022/12/28 04:29:01;;;;;;;6.13;2.50;;;;;;;11.13;62.61;101183.84;4936745;28;122899;-69
2022/12/28 04:31:45;;;;;;;3.70;2.50;;;;;;;11.13;62.38;101182.03;4942726;28;123165;-69
2022/12/28 04:34:17;;;;;;;5.00;2.80;;;;;;;11.16;62.65;101175.78;4948332;28;114633;-69
2022/12/28 04:36:55;;;;;;;4.90;2.40;;;;;;;11.17;62.64;101182.78;4931529;28;114292;-69
2022/12/28 04:39:23;;;;;;;3.53;2.45;;;;;;;11.18;62.60;101184.53;4947810;28;123224;-69
2022/12/28 04:41:50;;;;;;;5.03;2.80;;;;;;;11.20;62.63;101177.34;4934792;28;123895;-69
2022/12/28 04:44:17;;;;;;;5.82;2.97;;;;;;;11.22;62.64;101186.09;4931089;28;113214;-69
2022/12/28 04:46:44;;;;;;;4.97;3.22;;;;;;;11.23;62.92;101182.53;4935644;28;113902;-69
2022/12/28 04:49:11;;;;;;;5.45;3.10;;;;;;;11.26;62.68;101177.09;4933530;28;125325;-69
2022/12/28 04:51:38;;;;;;;7.70;3.08;;;;;;;11.28;62.91;101180.53;4944339;28;123921;-69
2022/12/28 04:54:05;;;;;;;5.05;2.70;;;;;;;11.28;62.88;101175.22;4930606;28;114312;-70
2022/12/28 04:56:32;;;;;;;8.13;3.38;;;;;;;11.29;62.95;101177.81;4943107;28;113921;-69
2022/12/28 04:58:59;;;;;;;5.75;3.20;;;;;;;11.29;62.89;101176.97;4942433;28;122914;-70
2022/12/28 05:01:27;;;;;;;5.20;3.28;;;;;;;11.29;62.98;101182.28;4937981;28;123078;-69
2022/12/28 05:03:54;;;;;;;6.10;3.60;;;;;;;11.32;62.92;101174.19;4944312;28;114131;-69
2022/12/28 05:06:26;;;;;;;7.68;3.30;;;;;;;11.33;63.09;101165.31;4956955;28;113880;-69
2022/12/28 05:08:55;;;;;;;5.93;3.13;;;;;;;11.35;63.26;101152.84;4944013;28;124392;-70
2022/12/28 05:11:25;;;;;;;6.18;3.35;;;;;;;11.36;63.40;101157.22;4940133;28;123977;-69
2022/12/28 05:13:52;;;;;;;4.00;2.72;;;;;;;11.37;63.09;101148.31;4947946;28;114367;-69
2022/12/28 05:16:22;;;;;;;6.97;3.28;;;;;;;11.39;63.15;101157.06;4946527;28;113178;-69
2022/12/28 05:18:49;;;;;;;5.95;3.40;;;;;;;11.40;63.13;101148.19;4938929;28;125379;-69
2022/12/28 05:21:22;;;;;;;5.38;3.03;;;;;;;11.41;63.23;101160.50;4949767;28;123820;-69
2022/12/28 05:23:50;;;;;;;5.43;2.92;;;;;;;11.42;63.38;101162.25;4958088;28;115235;-69
2022/12/28 05:26:20;;;;;;;6.57;3.20;;;;;;;11.42;63.31;101162.25;4943568;28;115084;-69
2022/12/28 05:28:48;;;;;;;4.43;2.90;;;;;;;11.44;63.63;101160.41;4942741;28;125621;-69
2022/12/28 05:31:18;;;;;;;5.90;2.83;;;;;;;11.45;63.47;101162.13;4937554;28;124198;-67
2022/12/28 05:33:46;;;;;;;6.45;3.20;;;;;;;11.46;63.50;101163.84;4937277;28;114515;-66
2022/12/28 05:36:17;;;;;;;5.68;3.00;;;;;;;11.46;63.53;101163.84;4938246;28;114002;-67
2022/12/28 05:38:44;;;;;;;4.43;3.25;;;;;;;11.47;63.72;101157.63;4936743;28;124684;-67
2022/12/28 05:41:18;;;;;;;7.43;3.20;;;;;;;11.48;63.74;101156.69;4950290;28;123041;-66
2022/12/28 05:43:46;;;;;;;5.32;3.28;;;;;;;11.47;63.55;101160.28;4945829;28;114510;-67
2022/12/28 05:46:18;;;;;;;6.90;3.20;;;;;;;11.49;63.83;101158.41;4948007;28;114215;-67
2022/12/28 05:48:46;;;;;;;4.30;3.22;;;;;;;11.50;63.91;101159.25;4948203;28;124115;-67
2022/12/28 05:51:16;;;;;;;5.03;3.22;;;;;;;11.53;63.81;101158.25;4949627;28;123915;-67
2022/12/28 05:53:43;;;;;;;4.97;2.88;;;;;;;11.54;63.79;101154.69;4945746;28;114171;-67
2022/12/28 05:56:13;;;;;;;5.75;2.85;;;;;;;11.56;63.96;101147.53;4944736;28;114042;-67
2022/12/28 05:58:42;;;;;;;4.53;2.78;;;;;;;11.58;64.02;101156.28;4948189;28;125600;-67
2022/12/28 06:01:12;;;;;;;5.38;2.90;;;;;;;11.58;64.11;101145.66;4947940;28;124559;-67
2022/12/28 06:03:40;;;;;;;3.05;2.42;;;;;;;11.59;63.97;101136.78;4949751;28;114331;-67
2022/12/28 06:06:12;;;;;;;4.80;2.60;;;;;;;11.60;64.13;101138.50;4935527;28;114079;-68
2022/12/28 06:08:41;;;;;;;4.60;2.70;;;;;;;11.61;63.95;101129.63;4957828;28;124796;-67
2022/12/28 06:11:11;;;;;;;2.90;2.35;;;;;;;11.61;64.24;101121.66;4949237;28;124827;-68
2022/12/28 06:13:38;;;;;;;4.43;2.60;;;;;;;11.63;64.16;101123.31;4948925;28;114929;-67
2022/12/28 06:16:20;;;;;;;3.58;2.70;;;;;;;11.63;64.32;101122.44;4938587;28;115318;-67
2022/12/28 06:18:48;;;;;;;2.80;2.05;;;;;;;11.64;64.09;101130.34;4946906;28;124006;-67
2022/12/28 06:21:21;;;;;;;4.00;2.15;;;;;;;11.65;64.21;101120.59;4945100;28;124587;-67
2022/12/28 06:23:49;;;;;;;4.15;2.30;;;;;;;11.67;64.17;101113.41;4950022;28;114085;-67
2022/12/28 06:26:19;;;;;;;3.78;2.17;;;;;;;11.66;64.36;101112.56;4949699;28;114129;-67
2022/12/28 06:28:47;;;;;;;3.88;2.00;;;;;;;11.69;64.45;101111.56;4943844;28;125062;-67
2022/12/28 06:31:19;;;;;;;2.45;1.92;;;;;;;11.70;64.35;101113.28;4950143;28;123449;-67
2022/12/28 06:33:47;;;;;;;2.92;1.90;;;;;;;11.72;64.38;101114.06;4946638;28;114628;-67
2022/12/28 06:36:17;;;;;;;3.60;1.70;;;;;;;11.74;64.46;101092.78;4947930;28;113906;-67
2022/12/28 06:38:48;;;;;;;2.95;2.10;;;;;;;11.74;64.52;101109.56;4945922;28;123756;-68
2022/12/28 06:41:17;;;;;;;4.13;1.83;;;;;;;11.76;64.42;101113.00;4939456;28;123072;-67
2022/12/28 06:43:45;;;;;;;4.85;2.17;;;;;;;11.78;64.40;101111.13;4950885;28;114089;-67
2022/12/28 06:46:14;;;;;;;3.05;1.70;;;;;;;11.80;64.65;101113.72;4947030;28;114387;-67
2022/12/28 06:48:41;;;;;;;2.75;1.67;;;;;;;11.81;64.54;101103.03;4947719;28;124633;-69
2022/12/28 06:51:18;;;;;;;2.47;1.70;;;;;;;11.81;64.72;101103.03;4947492;28;124205;-68
2022/12/28 06:53:46;;;;;;;3.45;1.80;;;;;;;11.83;64.64;101098.53;4946889;28;113368;-69
2022/12/28 06:56:17;;;;;;;3.20;1.80;;;;;;;11.86;64.75;101103.66;4947858;28;113664;-68
2022/12/28 06:58:45;;;;;;;4.40;1.58;;;;;;;11.87;64.65;101102.75;4950418;28;124082;-68
2022/12/28 07:01:19;;;;;;;2.60;1.83;;;;;;;11.88;64.64;101101.84;4943181;28;124152;-68
2022/12/28 07:03:49;;;;;;;3.25;1.75;;;;;;;11.91;64.58;101094.69;4947165;28;115237;-68
2022/12/28 07:06:18;;;;;;;2.78;1.63;;;;;;;11.92;64.72;101091.09;4949392;28;115559;-68
2022/12/28 07:08:46;;;;;;;2.85;1.88;;;;;;;11.94;64.67;101094.53;4946902;28;124301;-68
2022/12/28 07:11:15;;;;;;;3.90;1.90;;;;;;;11.95;64.85;101096.25;4949905;28;124871;-68
2022/12/28 07:13:42;;;;;;;5.60;1.90;;;;;;;11.95;64.72;101101.56;4946904;28;114961;-68
2022/12/28 07:16:15;;;;;;;2.90;2.00;;;;;;;11.96;64.65;101093.53;4945642;28;114249;-68
2022/12/28 07:18:43;;;;;;;2.97;1.98;;;;;;;11.98;64.80;101096.09;4947457;28;124211;-68
2022/12/28 07:21:13;;;;;;;3.58;2.15;;;;;;;12.00;64.76;101094.25;4948007;28;124155;-68
2022/12/28 07:23:40;;;;;;;3.03;1.85;;;;;;;12.00;64.76;101097.78;4936152;28;114255;-68
2022/12/28 07:26:10;;;;;;;2.30;1.55;;;;;;;12.01;64.60;101085.34;4943545;28;114340;-68
2022/12/28 07:28:43;;;;;;;2.97;2.13;;;;;;;12.03;64.53;101088.78;4958160;28;124318;-68
2022/12/28 07:31:16;;;;;;;5.13;2.30;;;;;;;12.05;64.81;101097.53;4919949;28;122733;-69
2022/12/28 07:33:45;;;;;;;3.03;2.10;;;;;;;12.06;64.74;101099.28;4944228;28;114612;-68
2022/12/28 07:36:16;;;;;;;5.03;2.42;;;;;;;12.05;64.50;101092.22;4944452;28;113832;-69
2022/12/28 07:38:43;;;;;;;2.78;2.20;;;;;;;12.07;64.74;101090.38;4947448;28;123100;-68
2022/12/28 07:41:13;;;;;;;3.08;1.90;;;;;;;12.04;64.65;101074.59;4949858;28;124441;-68
2022/12/28 07:43:41;;;;;;;3.13;1.88;;;;;;;12.06;64.67;101083.34;4933201;28;114632;-68
2022/12/28 07:46:15;;;;;;;3.25;2.13;;;;;;;12.07;64.60;101095.69;4943775;28;113023;-68
2022/12/28 07:48:44;;;;;;;2.07;1.83;;;;;;;12.08;64.58;101086.78;4940614;28;123285;-68
2022/12/28 07:51:14;;;;;;;2.20;2.00;;;;;;;12.09;64.73;101099.13;4941823;28;123964;-68
2022/12/28 07:53:43;;;;;;;2.97;2.00;;;;;;;12.09;64.86;101099.13;4942642;28;115103;-68
2022/12/28 07:56:11;;;;;;;3.47;2.30;;;;;;;12.09;64.71;101091.16;4934532;28;114791;-68
2022/12/28 07:58:38;;;;;;;3.65;2.20;;;;;;;12.11;64.80;101102.59;4940327;28;124476;-68
2022/12/28 08:01:13;;;;;;;2.50;2.20;;;;;;;12.11;64.89;101097.28;4935829;28;122757;-69
2022/12/28 08:03:43;;;;;;;3.53;1.90;;;;;;;12.11;64.87;101097.28;4939291;28;114378;-69
2022/12/28 08:06:13;;;;;;;2.40;1.98;;;;;;;12.12;64.82;101104.28;4932673;28;113812;-69
2022/12/28 08:08:42;;;;;;;3.67;2.40;;;;;;;12.12;64.88;101098.97;4934421;28;124307;-69
2022/12/28 08:11:12;;;;;;;4.75;2.30;;;;;;;12.12;64.81;101088.34;4936241;28;123860;-68
2022/12/28 08:13:41;;;;;;;2.90;2.30;;;;;;;12.13;64.88;101092.75;4944069;28;114362;-69
2022/12/28 08:16:11;;;;;;;2.35;2.00;;;;;;;12.15;64.76;101093.53;4932132;28;114396;-69
2022/12/28 08:18:39;;;;;;;2.63;1.95;;;;;;;12.16;64.86;101089.94;4931708;28;123872;-69
2022/12/28 08:21:10;;;;;;;5.18;2.30;;;;;;;12.18;64.89;101088.06;4957383;28;123929;-69
2022/12/28 08:23:38;;;;;;;2.50;1.92;;;;;;;12.19;64.81;101084.47;4944050;28;114197;-69
2022/12/28 08:26:23;;;;;;;2.67;2.03;;;;;;;12.18;64.80;101082.75;4940995;28;112791;-70
2022/12/28 08:28:53;;;;;;;;;;;;;;;12.19;64.56;101087.13;4941204;28;123809;-69
2022/12/28 08:31:24;;;;;;;2.60;2.00;;;;;;;12.18;64.65;101077.44;4936955;28;125407;-69
2022/12/28 08:33:53;;;;;;;4.07;2.15;;;;;;;12.18;64.73;101090.72;4939395;28;114056;-69
2022/12/28 08:36:21;;;;;;;3.58;2.35;;;;;;;12.18;64.81;101093.38;4938518;28;113781;-69
2022/12/28 08:38:49;;;;;;;3.25;2.50;;;;;;;12.18;64.97;101085.41;4939940;28;124025;-69
2022/12/28 08:41:19;;;;;;;2.40;2.17;;;;;;;12.19;65.06;101084.47;4945324;28;123796;-69
2022/12/28 08:43:47;;;;;;;3.20;2.42;;;;;;;12.20;64.95;101080.88;4928659;28;114986;-69
2022/12/28 08:46:17;;;;;;;2.92;2.50;;;;;;;12.20;64.85;101086.19;4942970;28;114659;-69
2022/12/28 08:48:45;;;;;;;3.13;2.50;;;;;;;12.22;64.90;101084.34;4943155;28;125394;-69
2022/12/28 08:51:33;;;;;;;4.13;2.67;;;;;;;12.23;64.93;101086.06;4936739;28;124162;-69
2022/12/28 08:54:00;;;;;;;4.45;2.53;;;;;;;12.25;64.91;101093.94;4939999;28;115116;-69
2022/12/28 08:56:30;;;;;;;4.28;2.63;;;;;;;12.25;64.97;101084.19;4928037;28;113581;-69
2022/12/28 08:58:58;;;;;;;3.40;2.22;;;;;;;12.29;64.89;101073.41;4942686;28;124146;-69
2022/12/28 09:01:31;;;;;;;3.72;2.35;;;;;;;12.29;65.09;101078.72;4941246;28;123635;-69
2022/12/28 09:04:03;;;;;;;5.05;2.47;;;;;;;12.30;64.96;101085.75;4939662;28;113925;-69
2022/12/28 09:06:33;;;;;;;3.28;2.30;;;;;;;12.32;65.01;101089.19;4943184;28;113908;-69
2022/12/28 09:09:03;;;;;;;4.18;2.85;;;;;;;12.34;64.92;101082.00;4938286;28;124644;-69
2022/12/28 09:11:34;;;;;;;5.07;2.50;;;;;;;12.36;65.07;101080.16;4946950;28;123906;-69
2022/12/28 09:14:03;;;;;;;4.47;2.58;;;;;;;12.37;64.87;101087.19;4948351;28;114170;-69
2022/12/28 09:16:31;;;;;;;4.70;2.83;;;;;;;12.39;65.04;101087.97;4948241;28;113952;-69
2022/12/28 09:19:00;;;;;;;6.22;2.55;;;;;;;12.41;64.96;101078.13;4940682;28;124776;-69
2022/12/28 09:21:33;;;;;;;6.32;2.85;;;;;;;12.43;64.97;101076.25;4941212;28;124538;-68
2022/12/28 09:24:01;;;;;;;3.90;2.50;;;;;;;12.42;64.89;101095.78;4944252;28;113827;-68
2022/12/28 09:26:34;;;;;;;4.20;2.58;;;;;;;12.43;64.73;101092.19;4938052;28;114561;-69
2022/12/28 09:29:05;;;;;;;3.45;2.42;;;;;;;12.44;64.99;101077.97;4944160;28;123707;-69
2022/12/28 09:31:34;;;;;;;3.05;2.30;;;;;;;12.45;64.83;101085.00;4924116;28;123213;-69
2022/12/28 09:34:07;;;;;;;4.28;2.47;;;;;;;12.45;64.96;101095.63;4937736;28;115898;-68
2022/12/28 09:36:54;;;;;;;3.13;1.83;;;;;;;12.46;64.87;101086.72;4928909;28;115643;-69
2022/12/28 09:39:23;;;;;;;4.85;2.10;;;;;;;12.46;64.95;101081.41;4939998;28;125728;-69
2022/12/28 09:42:12;;;;;;;4.55;2.22;;;;;;;12.49;65.07;101085.72;4921215;28;124222;-69
2022/12/28 09:44:43;;;;;;;5.55;2.40;;;;;;;12.49;64.98;101081.28;4947903;28;113726;-68
2022/12/28 09:47:11;;;;;;;3.25;2.20;;;;;;;12.49;65.03;101083.94;4946375;28;113934;-69
2022/12/28 09:50:01;;;;;;;3.78;1.95;;;;;;;12.49;65.02;101075.97;4943533;28;124187;-69
2022/12/28 09:52:38;;;;;;;3.78;2.00;;;;;;;12.52;65.00;101075.78;4944908;28;123995;-69
2022/12/28 09:55:14;;;;;;;3.92;1.95;;;;;;;12.51;65.09;101071.44;4946149;28;113609;-68
2022/12/28 09:57:49;;;;;;;3.15;1.92;;;;;;;12.52;65.14;101081.09;4944802;28;113670;-69
2022/12/28 10:00:19;;;;;;;3.33;1.97;;;;;;;12.53;65.06;101066.91;4944206;28;124296;-69
2022/12/28 10:02:52;;;;;;;4.55;1.95;;;;;;;12.54;65.02;101071.25;4947287;28;124701;-69
2022/12/28 10:05:21;;;;;;;3.72;2.03;;;;;;;12.56;65.14;101066.72;4944003;28;114143;-70
2022/12/28 10:07:50;;;;;;;4.30;1.73;;;;;;;12.58;64.97;101069.31;4944558;28;114849;-70
2022/12/28 10:10:20;;;;;;;3.85;1.98;;;;;;;12.59;64.65;101071.91;4946521;28;123688;-69
2022/12/28 10:12:49;;;;;;;2.40;1.92;;;;;;;12.60;65.04;101068.31;4949127;28;124171;-70
2022/12/28 10:15:17;;;;;;;4.35;2.47;;;;;;;12.62;64.94;101077.06;4946015;28;114721;-69
2022/12/28 10:17:44;;;;;;;3.10;1.88;;;;;;;12.64;65.27;101066.38;4947152;28;113890;-69
2022/12/28 10:20:17;;;;;;;3.08;2.03;;;;;;;12.66;65.04;101075.97;4946812;28;124292;-69
2022/12/28 10:22:49;;;;;;;4.00;1.80;;;;;;;12.71;65.00;101064.25;4945910;28;124069;-69
2022/12/28 10:25:24;;;;;;;3.45;1.70;;;;;;;12.72;64.84;101068.66;4932035;28;115394;-70
2022/12/28 10:27:52;;;;;;;2.67;1.80;;;;;;;12.72;64.92;101066.84;4932459;28;116494;-69
2022/12/28 10:30:25;;;;;;;3.42;1.88;;;;;;;12.73;64.95;101067.69;4950904;28;124050;-69
2022/12/28 10:32:58;;;;;;;3.63;1.60;;;;;;;12.73;64.96;101051.75;4947142;28;123687;-70
2022/12/28 10:35:39;;;;;;;3.50;1.70;;;;;;;12.74;65.01;101058.78;4949085;28;115102;-69
2022/12/28 10:38:22;;;;;;;3.30;1.70;;;;;;;12.74;64.92;101053.47;4950543;28;114154;-69
2022/12/28 10:41:00;;;;;;;2.60;1.67;;;;;;;12.74;64.97;101058.78;4963017;28;123986;-69
2022/12/28 10:43:40;;;;;;;4.60;1.95;;;;;;;12.75;64.90;101056.06;4948934;28;123861;-69
2022/12/28 10:46:22;;;;;;;3.13;2.00;;;;;;;12.77;64.98;101048.00;4946524;28;114422;-70
2022/12/28 10:48:57;;;;;;;4.60;2.10;;;;;;;12.78;64.98;101044.41;4915357;28;114824;-69
2022/12/28 10:51:28;;;;;;;2.28;1.67;;;;;;;12.78;64.90;101052.38;4954724;28;125100;-69
2022/12/28 10:53:56;;;;;;;4.18;1.60;;;;;;;12.79;64.91;101040.78;4947587;28;123174;-70
2022/12/28 10:56:29;;;;;;;2.78;1.77;;;;;;;12.77;64.92;101037.34;4950821;28;113524;-70
2022/12/28 10:59:14;;;;;;;4.82;1.80;;;;;;;12.77;65.18;101037.34;4930096;28;114218;-69
2022/12/28 11:01:41;;;;;;;3.47;1.90;;;;;;;12.77;64.99;101042.66;4932631;28;125869;-69
2022/12/28 11:04:19;;;;;;;2.60;1.80;;;;;;;12.76;65.00;101035.66;4943070;28;122548;-70
2022/12/28 11:06:59;;;;;;;2.67;1.75;;;;;;;12.77;64.98;101029.38;4949281;28;113248;-69
2022/12/28 11:09:34;;;;;;;2.72;1.70;;;;;;;12.78;65.09;101028.47;4950304;28;114337;-69
2022/12/28 11:12:22;;;;;;;4.10;1.77;;;;;;;12.77;65.02;101032.03;4939048;28;125396;-69
2022/12/28 11:14:51;;;;;;;3.33;1.70;;;;;;;12.77;65.02;101024.06;4943964;28;124220;-70
2022/12/28 11:17:22;;;;;;;3.45;1.70;;;;;;;12.78;65.21;101020.47;4948596;28;114844;-70
2022/12/28 11:19:53;;;;;;;3.28;1.65;;;;;;;12.78;65.07;101013.38;4949398;28;114439;-69
2022/12/28 11:22:27;;;;;;;3.17;1.75;;;;;;;12.79;65.00;101014.22;4935264;28;124706;-69
2022/12/28 11:24:56;;;;;;;3.90;1.70;;;;;;;12.79;65.11;101009.78;4950915;28;123802;-69
2022/12/28 11:27:23;;;;;;;6.03;1.80;;;;;;;12.77;65.01;101000.16;4948893;28;114599;-69
2022/12/28 11:29:52;;;;;;;5.15;1.98;;;;;;;12.78;65.14;101004.53;4949671;28;113255;-70
2022/12/28 11:32:34;;;;;;;4.10;1.77;;;;;;;12.79;65.34;101003.59;4946512;28;124094;-70
2022/12/28 11:35:03;;;;;;;2.97;1.75;;;;;;;12.80;65.06;101002.66;4959052;28;124117;-69
2022/12/28 11:37:30;;;;;;;3.47;1.90;;;;;;;12.81;65.20;100993.75;4943607;28;114223;-70
2022/12/28 11:39:57;;;;;;;2.72;1.70;;;;;;;12.81;64.96;100991.94;4937028;28;115503;-69
2022/12/28 11:42:30;;;;;;;2.45;1.73;;;;;;;12.82;64.91;100987.50;4946714;28;124628;-70
2022/12/28 11:45:15;;;;;;;3.05;2.00;;;;;;;12.85;65.17;100982.03;4914806;28;124446;-70
2022/12/28 11:47:44;;;;;;;2.80;1.90;;;;;;;12.87;65.08;100979.28;4942191;28;114265;-70
2022/12/28 11:50:35;;;;;;;2.63;1.67;;;;;;;12.87;65.00;100980.16;4949594;28;113647;-70
2022/12/28 11:53:23;;;;;;;3.72;1.63;;;;;;;12.88;65.03;100976.53;4933691;28;124823;-70
2022/12/28 11:56:06;;;;;;;2.80;1.80;;;;;;;12.90;65.07;100979.09;4935982;28;124266;-69
2022/12/28 11:58:39;;;;;;;3.40;1.75;;;;;;;12.90;65.10;100973.78;4950872;28;113932;-69
2022/12/28 12:01:26;;;;;;;4.75;1.80;;;;;;;12.92;64.94;100966.59;4955574;28;113440;-69
2022/12/28 12:03:56;;;;;;;3.25;1.70;;;;;;;12.92;65.05;100962.16;4946679;28;124377;-69